Big Bear Station Historical Data
Daily Summary for June 8, 2017 Units:  English    Metric   Both
« Previous Day
Next Day »
Daily Weekly Monthly Yearly Custom
  High: Low: Average:
Temperature: 76.5 °F 44.1 °F 59.3 °F
Dew Point: 32.7 °F 7.0 °F 20.6 °F
Humidity: 49 % 11 % 24 %
Wind Speed: 9.4 mph 0.0 mph 2.4 mph
Wind Gust: -999.0 mph - -
Wind:- - SW
Pressure: 30.20 in 30.14 in -
Precipitation: 0.00 in    
Historical Graphs
 
 
Tabular Data for June 8, 2017
Time Temperature Dew Point Pressure Wind Wind Speed Wind Gust Humidity Rainfall Rate (Hourly)
00:02 52.2 °F 19.2 °F 30.18 in South 2.2 mph -999.0 mph 27 % 0 in
00:17 51.6 °F 19.5 °F 30.17 in SSW 2.7 mph -999.0 mph 28 % 0 in
00:32 50.4 °F 15.9 °F 30.17 in SSW 2.2 mph -999.0 mph 25 % 0 in
00:47 49.1 °F 15.7 °F 30.17 in Calm   -999.0 mph 26 % 0 in
01:02 47.8 °F 16.2 °F 30.16 in South 2.7 mph -999.0 mph 28 % 0 in
01:18 47.5 °F 15.1 °F 30.16 in South 1.7 mph -999.0 mph 27 % 0 in
01:33 48.2 °F 14.9 °F 30.16 in South 2.7 mph -999.0 mph 26 % 0 in
01:48 48.7 °F 13.5 °F 30.16 in South 1.7 mph -999.0 mph 24 % 0 in
02:03 47.3 °F 13.2 °F 30.16 in Calm   -999.0 mph 25 % 0 in
02:18 47.3 °F 13.2 °F 30.16 in Calm   -999.0 mph 25 % 0 in
02:34 47.5 °F 17.6 °F 30.16 in Calm   -999.0 mph 30 % 0 in
03:04 47.7 °F 17.0 °F 30.16 in Calm   -999.0 mph 29 % 0 in
03:19 47.7 °F 17.0 °F 30.16 in Calm   -999.0 mph 29 % 0 in
03:34 47.1 °F 16.4 °F 30.16 in South 2.7 mph -999.0 mph 29 % 0 in
03:50 46.4 °F 19.5 °F 30.16 in SSE 1.1 mph -999.0 mph 34 % 0 in
04:05 46.8 °F 17.7 °F 30.16 in South 2.2 mph -999.0 mph 31 % 0 in
04:20 45.9 °F 16.2 °F 30.16 in Calm   -999.0 mph 30 % 0 in
04:35 45.3 °F 20.5 °F 30.16 in Calm   -999.0 mph 37 % 0 in
04:50 44.8 °F 25.8 °F 30.15 in Calm   -999.0 mph 47 % 0 in
05:06 44.4 °F 26.4 °F 30.15 in Calm   -999.0 mph 49 % 0 in
05:36 44.1 °F 25.1 °F 30.15 in Calm   -999.0 mph 47 % 0 in
05:51 44.4 °F 23.3 °F 30.16 in SSE 1.1 mph -999.0 mph 43 % 0 in
06:07 44.8 °F 22.5 °F 30.16 in SSE 2.2 mph -999.0 mph 41 % 0 in
06:22 45.5 °F 23.1 °F 30.16 in South 2.2 mph -999.0 mph 41 % 0 in
06:37 45.5 °F 23.1 °F 30.16 in ESE 1.7 mph -999.0 mph 41 % 0 in
06:52 46.8 °F 24.9 °F 30.17 in SSE 2.2 mph -999.0 mph 42 % 0 in
07:07 48.4 °F 26.9 °F 30.16 in South 2.2 mph -999.0 mph 43 % 0 in
07:23 49.8 °F 28.8 °F 30.16 in ESE 1.1 mph -999.0 mph 44 % 0 in
07:38 52.2 °F 30.4 °F 30.16 in South 2.7 mph -999.0 mph 43 % 0 in
07:53 54.3 °F 24.3 °F 30.16 in Calm   -999.0 mph 31 % 0 in
08:08 54.7 °F 22.2 °F 30.17 in NW 2.7 mph -999.0 mph 28 % 0 in
08:23 57.2 °F 20.7 °F 30.17 in SSW 2.7 mph -999.0 mph 24 % 0 in
08:39 59.0 °F 21.2 °F 30.17 in ESE 1.1 mph -999.0 mph 23 % 0 in
08:54 61.9 °F 19.2 °F 30.18 in East 3.2 mph -999.0 mph 19 % 0 in
09:09 62.4 °F 20.8 °F 30.18 in NW 5.3 mph -999.0 mph 20 % 0 in
09:25 63.5 °F 20.5 °F 30.18 in SSW 1.1 mph -999.0 mph 19 % 0 in
09:40 64.4 °F 22.4 °F 30.18 in NW 1.7 mph -999.0 mph 20 % 0 in
09:55 65.5 °F 22.1 °F 30.18 in NNE 6.8 mph -999.0 mph 19 % 0 in
10:10 66.0 °F 21.3 °F 30.18 in NNW 3.7 mph -999.0 mph 18 % 0 in
10:26 66.2 °F 22.7 °F 30.19 in North 5.3 mph -999.0 mph 19 % 0 in
10:42 67.1 °F 24.7 °F 30.19 in West 5.8 mph -999.0 mph 20 % 0 in
10:57 67.8 °F 22.7 °F 30.19 in West 1.7 mph -999.0 mph 18 % 0 in
11:13 69.4 °F 21.2 °F 30.19 in NNE 3.2 mph -999.0 mph 16 % 0 in
11:28 70.7 °F 20.8 °F 30.19 in WNW 2.7 mph -999.0 mph 15 % 0 in
11:43 72.5 °F 22.2 °F 30.19 in NNW 3.7 mph -999.0 mph 15 % 0 in
11:58 72.0 °F 21.8 °F 30.20 in NNE 2.7 mph -999.0 mph 15 % 0 in
12:13 72.5 °F 25.2 °F 30.20 in WNW 4.7 mph -999.0 mph 17 % 0 in
12:29 70.5 °F 23.6 °F 30.20 in NW 4.2 mph -999.0 mph 17 % 0 in
12:44 73.4 °F 22.9 °F 30.20 in NW 7.3 mph -999.0 mph 15 % 0 in
12:59 72.3 °F 23.6 °F 30.19 in NE 4.2 mph -999.0 mph 16 % 0 in
13:14 72.5 °F 23.7 °F 30.20 in West 2.7 mph -999.0 mph 16 % 0 in
13:29 71.4 °F 24.3 °F 30.19 in ESE 2.7 mph -999.0 mph 17 % 0 in
13:45 72.5 °F 22.2 °F 30.19 in NW 4.2 mph -999.0 mph 15 % 0 in
14:00 72.5 °F 18.8 °F 30.19 in NW 9.4 mph -999.0 mph 13 % 0 in
14:15 72.9 °F 22.5 °F 30.19 in NW 5.8 mph -999.0 mph 15 % 0 in
14:30 75.9 °F 19.6 °F 30.19 in SE 1.7 mph -999.0 mph 12 % 0 in
14:46 76.5 °F 20.1 °F 30.18 in WNW 2.7 mph -999.0 mph 12 % 0 in
15:01 75.9 °F 19.6 °F 30.18 in South 3.7 mph -999.0 mph 12 % 0 in
15:17 76.3 °F 17.9 °F 30.18 in West 6.8 mph -999.0 mph 11 % 0 in
15:32 74.8 °F 18.8 °F 30.18 in North 3.7 mph -999.0 mph 12 % 0 in
15:47 75.0 °F 18.9 °F 30.17 in NNW 7.3 mph -999.0 mph 12 % 0 in
16:02 73.2 °F 19.4 °F 30.17 in NNW 2.7 mph -999.0 mph 13 % 0 in
16:18 73.8 °F 23.2 °F 30.17 in ENE 2.2 mph -999.0 mph 15 % 0 in
16:33 73.8 °F 19.9 °F 30.16 in WSW 2.2 mph -999.0 mph 13 % 0 in
16:48 72.9 °F 24.1 °F 30.16 in SW 2.7 mph -999.0 mph 16 % 0 in
17:03 74.1 °F 25.0 °F 30.16 in SE 1.7 mph -999.0 mph 16 % 0 in
17:19 74.1 °F 27.9 °F 30.16 in WNW 3.7 mph -999.0 mph 18 % 0 in
17:34 75.9 °F 30.7 °F 30.16 in NNW 3.2 mph -999.0 mph 19 % 0 in
17:49 73.0 °F 31.9 °F 30.16 in NNW 3.2 mph -999.0 mph 22 % 0 in
18:04 71.4 °F 32.7 °F 30.15 in WNW 6.3 mph -999.0 mph 24 % 0 in
18:20 70.2 °F 32.7 °F 30.15 in WNW 4.2 mph -999.0 mph 25 % 0 in
18:35 65.3 °F 32.2 °F 30.15 in NNW 3.7 mph -999.0 mph 29 % 0 in
19:05 65.1 °F 32.0 °F 30.15 in NW 2.7 mph -999.0 mph 29 % 0 in
19:21 63.7 °F 32.5 °F 30.15 in SW 1.7 mph -999.0 mph 31 % 0 in
19:36 60.4 °F 31.9 °F 30.15 in NW 1.7 mph -999.0 mph 34 % 0 in
19:51 58.5 °F 28.7 °F 30.15 in NNW 1.1 mph -999.0 mph 32 % 0 in
20:07 57.2 °F 26.8 °F 30.15 in NNW 1.7 mph -999.0 mph 31 % 0 in
20:22 56.3 °F 26.0 °F 30.16 in Calm   -999.0 mph 31 % 0 in
20:37 54.9 °F 18.8 °F 30.16 in Calm   -999.0 mph 24 % 0 in
20:52 53.6 °F 13.5 °F 30.16 in Calm   -999.0 mph 20 % 0 in
21:08 52.9 °F 12.9 °F 30.16 in South 1.7 mph -999.0 mph 20 % 0 in
21:23 53.2 °F 10.7 °F 30.16 in Calm   -999.0 mph 18 % 0 in
21:38 52.9 °F 9.2 °F 30.16 in Calm   -999.0 mph 17 % 0 in
21:53 52.7 °F 9.1 °F 30.16 in Calm   -999.0 mph 17 % 0 in
22:08 52.2 °F 9.9 °F 30.16 in SSE 2.2 mph -999.0 mph 18 % 0 in
22:24 52.0 °F 8.5 °F 30.16 in SE 1.7 mph -999.0 mph 17 % 0 in
22:39 51.1 °F 9.0 °F 30.16 in South 1.7 mph -999.0 mph 18 % 0 in
22:54 50.5 °F 8.5 °F 30.16 in South 1.1 mph -999.0 mph 18 % 0 in
23:10 50.2 °F 7.0 °F 30.15 in Calm   -999.0 mph 17 % 0 in
23:25 49.6 °F 7.8 °F 30.15 in SSE 2.2 mph -999.0 mph 18 % 0 in
23:40 49.1 °F 9.7 °F 30.15 in SSE 1.7 mph -999.0 mph 20 % 0 in
23:55 49.1 °F 11.8 °F 30.14 in South 2.2 mph -999.0 mph 22 % 0 in
Big Bear CA Weather
Compliments of Weather Underground - 1.5 mb